臺中航空站 - ATIS

METAR RCMQ 120300Z 31005KT 8000 FEW012 26/16 Q1017 NOSIG RMK A3005=

站台狀態:Offline
最後更新:2019-11-12 11:00:01